Time;durP1;ratioP1;P1;durP2;ratioP2;P2;SDS_P1;SDS_P2;PMS_P1;PMS_P2;Temp;Humidity;BMP_temperature;BMP_pressure;BME280_temperature;BME280_humidity;BME280_pressure;Samples;Min_cycle;Max_cycle;Signal;HPM_P1;HPM_P2
2023/01/13 00:01:16;;;;;;;4.90;1.63;;;27.70;92.10;;;;;;5074508;28;20382;-85
2023/01/13 00:03:43;;;;;;;4.68;1.60;;;27.30;92.40;;;;;;5074585;28;20362;-81
2023/01/13 00:06:16;;;;;;;4.57;1.83;;;27.30;93.00;;;;;;5076728;28;20480;-89
2023/01/13 00:08:43;;;;;;;6.13;1.80;;;27.50;92.40;;;;;;5075805;28;20765;-86
2023/01/13 00:11:11;;;;;;;7.03;2.00;;;27.80;92.60;;;;;;5075907;28;20417;-92
2023/01/13 00:13:38;;;;;;;7.78;2.00;;;28.00;92.10;;;;;;5074922;28;20423;-84
2023/01/13 00:16:07;;;;;;;6.07;1.70;;;27.70;92.10;;;;;;5074492;28;20461;-79
2023/01/13 00:18:35;;;;;;;4.10;1.70;;;27.50;91.90;;;;;;5075390;28;20370;-88
2023/01/13 00:21:06;;;;;;;6.57;2.10;;;27.50;91.40;;;;;;5080432;28;20392;-89
2023/01/13 00:23:35;;;;;;;5.78;1.90;;;27.40;91.90;;;;;;5089792;28;20367;-87
2023/01/13 00:26:16;;;;;;;4.45;1.90;;;27.40;92.00;;;;;;5091169;28;20389;-82
2023/01/13 00:28:43;;;;;;;4.47;2.23;;;27.20;92.20;;;;;;5084072;28;20798;-87
2023/01/13 00:31:13;;;;;;;7.18;2.30;;;27.20;92.40;;;;;;5082410;28;20850;-87
2023/01/13 00:33:41;;;;;;;5.35;2.20;;;27.40;91.80;;;;;;5082145;28;20443;-90
2023/01/13 00:36:11;;;;;;;6.25;2.40;;;27.50;91.70;;;;;;5075741;28;20398;-86
2023/01/13 00:38:38;;;;;;;3.33;1.97;;;27.60;91.60;;;;;;5076117;28;20854;-79
2023/01/13 00:41:11;;;;;;;6.23;2.00;;;27.90;91.90;;;;;;5074685;28;20381;-89
2023/01/13 00:43:38;;;;;;;6.20;2.47;;;28.60;90.40;;;;;;5074785;28;20369;-79
2023/01/13 00:46:07;;;;;;;8.70;2.88;;;28.90;89.90;;;;;;5074127;28;20511;-89
2023/01/13 00:48:34;;;;;;;4.57;2.00;;;29.40;89.00;;;;;;5074588;28;20370;-83
2023/01/13 00:51:03;;;;;;;5.40;2.17;;;30.10;88.20;;;;;;5072725;28;20374;-82
2023/01/13 00:53:35;;;;;;;6.63;2.03;;;30.70;85.90;;;;;;5073403;28;20389;-84
2023/01/13 00:56:08;;;;;;;5.55;2.20;;;31.20;83.90;;;;;;5073636;28;20470;-80
2023/01/13 00:58:36;;;;;;;5.55;2.10;;;31.00;82.30;;;;;;5074447;28;20383;-90
2023/01/13 01:01:06;;;;;;;5.03;2.00;;;30.70;82.30;;;;;;5072906;28;20405;-85
2023/01/13 01:03:33;;;;;;;3.80;2.00;;;30.50;82.60;;;;;;5073105;28;20389;-83
2023/01/13 01:06:06;;;;;;;5.75;2.08;;;30.30;82.50;;;;;;5073269;28;20722;-85
2023/01/13 01:08:34;;;;;;;5.47;1.90;;;29.70;82.70;;;;;;5072499;28;20469;-88
2023/01/13 01:11:10;;;;;;;5.60;1.90;;;29.10;83.40;;;;;;5074029;28;20380;-89
2023/01/13 01:13:37;;;;;;;4.53;1.80;;;28.80;85.10;;;;;;5073475;28;20370;-90
2023/01/13 01:16:10;;;;;;;4.07;1.60;;;28.50;86.10;;;;;;5073166;28;20493;-86
2023/01/13 01:18:40;;;;;;;2.78;1.50;;;28.60;85.20;;;;;;5072838;28;20449;-88
2023/01/13 01:21:07;;;;;;;4.55;1.60;;;28.50;85.60;;;;;;5073616;28;20382;-84
2023/01/13 01:23:36;;;;;;;3.40;1.48;;;28.80;85.20;;;;;;5073688;28;20406;-86
2023/01/13 01:26:18;;;;;;;4.88;1.67;;;29.00;84.60;;;;;;5073151;28;20464;-90
2023/01/13 01:28:46;;;;;;;4.38;1.80;;;29.40;83.40;;;;;;5073264;28;20367;-82
2023/01/13 01:31:16;;;;;;;6.37;1.60;;;29.80;82.80;;;;;;5072672;28;20523;-81
2023/01/13 01:33:46;;;;;;;4.30;1.60;;;29.70;83.00;;;;;;5074100;28;20385;-84
2023/01/13 01:36:14;;;;;;;4.93;1.70;;;29.70;81.20;;;;;;5072480;28;20477;-85
2023/01/13 01:38:59;;;;;;;4.93;1.98;;;29.60;81.30;;;;;;5111221;27;20366;-86
2023/01/13 01:41:28;;;;;;;4.93;1.77;;;29.60;81.90;;;;;;5111122;27;20879;-86
2023/01/13 01:44:15;;;;;;;4.53;1.60;;;30.00;83.00;;;;;;5108187;28;20392;-84
2023/01/13 01:46:44;;;;;;;5.38;1.60;;;30.00;81.00;;;;;;5108720;27;20380;-93
2023/01/13 01:49:30;;;;;;;5.80;1.85;;;29.80;81.60;;;;;;5115217;28;20390;-86
2023/01/13 01:52:21;;;;;;;4.18;1.60;;;30.40;82.00;;;;;;5107367;28;20375;-85
2023/01/13 01:55:14;;;;;;;5.23;1.60;;;30.20;81.50;;;;;;5105704;28;20399;-90
2023/01/13 01:58:01;;;;;;;5.78;1.70;;;30.60;79.10;;;;;;5108477;28;20404;-90
2023/01/13 02:00:28;;;;;;;12.15;10.27;;;30.70;79.80;;;;;;5111776;28;20388;-87
2023/01/13 02:02:56;;;;;;;7.03;1.98;;;30.90;79.50;;;;;;5114981;27;20388;-89
2023/01/13 02:05:23;;;;;;;4.13;1.70;;;31.10;78.00;;;;;;5108413;28;20467;-84
2023/01/13 02:07:53;;;;;;;4.83;1.70;;;31.00;79.30;;;;;;5111176;28;20409;-87
2023/01/13 02:10:24;;;;;;;4.30;1.70;;;30.80;79.20;;;;;;5108952;28;20922;-82
2023/01/13 02:12:52;;;;;;;4.57;1.80;;;30.90;79.80;;;;;;5111052;27;20746;-85
2023/01/13 02:15:34;;;;;;;4.97;1.80;;;31.60;78.10;;;;;;5110509;28;20463;-87
2023/01/13 02:18:34;;;;;;;5.72;2.40;;;31.70;78.50;;;;;;5110473;27;20760;-83
2023/01/13 02:21:19;;;;;;;3.80;1.80;;;32.20;77.10;;;;;;5115903;28;20411;-84
2023/01/13 02:27:25;;;;;;;4.35;1.60;;;32.60;74.50;;;;;;5107929;28;20401;-88
2023/01/13 02:33:33;;;;;;;5.65;1.50;;;31.20;76.70;;;;;;5070549;28;20602;-86
2023/01/13 02:36:12;;;;;;;4.18;1.70;;;30.70;77.20;;;;;;5055319;28;20451;-89
2023/01/13 02:38:56;;;;;;;4.53;1.60;;;30.60;78.50;;;;;;5071221;28;20427;-84
2023/01/13 02:44:28;;;;;;;5.15;1.70;;;31.10;77.40;;;;;;5053088;28;20513;-84
2023/01/13 02:47:03;;;;;;;5.78;1.70;;;31.10;77.60;;;;;;5064793;28;20402;-89
2023/01/13 02:49:42;;;;;;;3.28;1.50;;;31.20;77.80;;;;;;5066763;28;20382;-86
2023/01/13 02:52:18;;;;;;;5.38;1.55;;;31.10;77.60;;;;;;5056413;28;20480;-88
2023/01/13 02:54:52;;;;;;;5.35;1.60;;;30.90;77.40;;;;;;5062134;28;20417;-85
2023/01/13 02:57:21;;;;;;;4.32;1.50;;;31.10;77.30;;;;;;5060966;28;20909;-88
2023/01/13 02:59:48;;;;;;;4.38;1.60;;;31.10;77.10;;;;;;5057559;28;20847;-88
2023/01/13 03:02:19;;;;;;;4.00;1.50;;;31.00;76.30;;;;;;5048290;28;20380;-87
2023/01/13 03:04:51;;;;;;;3.75;1.55;;;30.90;77.20;;;;;;5059392;28;20515;-86
2023/01/13 03:07:38;;;;;;;4.32;1.60;;;30.80;77.40;;;;;;5098605;28;20405;-91
2023/01/13 03:10:43;;;;;;;6.25;1.65;;;30.50;78.80;;;;;;5053432;28;20389;-90
2023/01/13 03:13:13;;;;;;;3.72;1.60;;;30.30;79.80;;;;;;5049895;28;20910;-89
2023/01/13 03:16:11;;;;;;;3.88;1.45;;;29.90;80.80;;;;;;5050017;28;20498;-86
2023/01/13 03:19:15;;;;;;;4.53;1.63;;;29.80;81.60;;;;;;5056374;28;20989;-88
2023/01/13 03:21:51;;;;;;;6.15;1.70;;;30.10;81.40;;;;;;5051806;28;20525;-91
2023/01/13 03:24:27;;;;;;;6.17;1.70;;;31.10;78.90;;;;;;5049570;28;20426;-89
2023/01/13 03:27:14;;;;;;;4.05;1.50;;;32.10;77.70;;;;;;5053395;28;20398;-91
2023/01/13 03:30:31;;;;;;;4.05;1.50;;;33.10;74.70;;;;;;5007268;28;20419;-89
2023/01/13 03:33:26;;;;;;;4.03;1.30;;;33.10;74.80;;;;;;4967784;28;20469;-86
2023/01/13 03:35:58;;;;;;;4.22;1.70;;;32.90;73.50;;;;;;4970200;28;20735;-85
2023/01/13 03:38:29;;;;;;;4.67;1.50;;;33.50;74.80;;;;;;4961210;28;20847;-84
2023/01/13 03:41:10;;;;;;;5.47;1.48;;;34.40;73.30;;;;;;4957277;28;20546;-87
2023/01/13 03:46:54;;;;;;;4.72;1.23;;;34.90;71.20;;;;;;4970930;28;20394;-90
2023/01/13 03:49:26;;;;;;;3.83;1.58;;;36.30;70.30;;;;;;4930642;29;20406;-86
2023/01/13 03:51:58;;;;;;;5.33;1.47;;;37.50;67.80;;;;;;4930801;29;20409;-86
2023/01/13 03:54:30;;;;;;;6.68;1.65;;;38.60;65.10;;;;;;4928958;29;20438;-86
2023/01/13 03:57:03;;;;;;;4.55;1.40;;;39.10;62.60;;;;;;4914801;29;20437;-86
2023/01/13 03:59:40;;;;;;;3.45;1.30;;;38.80;60.00;;;;;;4931466;29;20497;-87
2023/01/13 04:02:28;;;;;;;3.45;1.48;;;37.60;60.50;;;;;;4930588;29;20941;-85
2023/01/13 04:05:01;;;;;;;5.28;1.48;;;36.10;62.50;;;;;;4930275;29;20906;-91
2023/01/13 04:07:53;;;;;;;4.60;1.50;;;35.30;64.30;;;;;;4963210;28;20464;-87
2023/01/13 04:10:30;;;;;;;3.95;1.40;;;35.00;63.60;;;;;;4989060;28;20483;-88
2023/01/13 04:13:11;;;;;;;5.45;1.80;;;34.30;65.50;;;;;;4985104;28;20397;-83
2023/01/13 04:15:44;;;;;;;3.80;1.30;;;34.00;67.20;;;;;;5000534;28;20867;-89
2023/01/13 04:18:22;;;;;;;4.80;1.60;;;34.20;67.40;;;;;;4993615;28;20799;-91
2023/01/13 04:20:52;;;;;;;3.90;1.50;;;34.70;65.70;;;;;;4990671;28;20395;-87
2023/01/13 04:23:20;;;;;;;5.85;1.33;;;35.10;64.50;;;;;;4973468;28;20400;-90
2023/01/13 04:25:48;;;;;;;5.13;1.42;;;35.80;64.90;;;;;;5022118;28;20881;-89
2023/01/13 04:28:17;;;;;;;4.60;1.50;;;36.00;63.10;;;;;;5081848;28;20396;-86
2023/01/13 04:30:44;;;;;;;9.00;2.03;;;35.40;63.90;;;;;;5093861;28;20902;-87
2023/01/13 04:33:12;;;;;;;48.63;5.60;;;35.40;63.50;;;;;;5077799;28;20380;-80
2023/01/13 04:35:39;;;;;;;9.13;1.70;;;35.10;64.80;;;;;;5084120;28;20451;-82
2023/01/13 04:38:13;;;;;;;34.03;4.45;;;34.70;65.70;;;;;;5080124;28;20440;-84
2023/01/13 04:40:41;;;;;;;78.30;7.00;;;34.70;65.50;;;;;;5085133;28;20452;-79
2023/01/13 04:43:08;;;;;;;36.13;4.23;;;35.10;66.00;;;;;;5078815;28;20396;-81
2023/01/13 04:45:35;;;;;;;4.07;1.67;;;35.60;64.40;;;;;;5085446;28;20388;-83
2023/01/13 04:48:03;;;;;;;5.00;1.50;;;35.60;62.70;;;;;;5077182;28;20397;-83
2023/01/13 04:50:30;;;;;;;8.57;1.75;;;34.10;65.50;;;;;;5082102;28;20463;-85
2023/01/13 04:52:57;;;;;;;8.67;1.50;;;33.80;66.50;;;;;;5071654;28;20401;-88
2023/01/13 04:55:24;;;;;;;7.22;1.55;;;33.50;68.30;;;;;;5078181;28;20388;-87
2023/01/13 04:57:52;;;;;;;7.00;1.60;;;33.00;69.80;;;;;;5082703;28;20398;-84
2023/01/13 05:00:21;;;;;;;5.90;1.63;;;32.80;70.30;;;;;;5081297;28;20416;-85
2023/01/13 05:02:51;;;;;;;4.57;1.50;;;32.70;71.00;;;;;;5076894;28;20386;-81
2023/01/13 05:05:19;;;;;;;3.85;1.40;;;32.50;72.00;;;;;;5083201;28;20396;-80
2023/01/13 05:07:46;;;;;;;6.03;1.55;;;32.60;72.10;;;;;;5071571;28;20841;-81
2023/01/13 05:10:13;;;;;;;5.45;1.50;;;32.70;72.10;;;;;;5084205;28;20895;-81
2023/01/13 05:18:11;;;;;;;3.85;1.67;;;32.90;70.70;;;;;;5090287;28;20410;-80
2023/01/13 05:20:38;;;;;;;2.47;1.27;;;33.00;71.50;;;;;;5095160;28;20370;-81
2023/01/13 05:25:50;;;;;;;4.43;1.50;;;33.90;70.00;;;;;;5090790;28;20372;-81
2023/01/13 05:28:17;;;;;;;3.20;1.30;;;34.30;68.80;;;;;;5103095;28;20382;-84
2023/01/13 05:30:47;;;;;;;3.72;1.40;;;34.20;68.40;;;;;;5087196;28;20467;-83
2023/01/13 05:33:17;;;;;;;3.80;1.30;;;33.70;70.60;;;;;;5091835;28;20402;-83
2023/01/13 05:35:45;;;;;;;3.73;1.30;;;33.60;70.10;;;;;;5098196;28;20425;-87
2023/01/13 05:38:13;;;;;;;3.85;1.30;;;33.70;70.20;;;;;;5091097;28;20430;-83
2023/01/13 05:43:27;;;;;;;3.45;1.30;;;34.80;68.10;;;;;;5097197;28;20469;-80
2023/01/13 05:46:08;;;;;;;4.22;1.30;;;35.60;66.60;;;;;;5095319;28;20368;-82
2023/01/13 05:48:38;;;;;;;3.17;1.17;;;36.00;65.80;;;;;;5090381;28;20392;-82
2023/01/13 05:51:08;;;;;;;3.03;1.10;;;36.50;64.10;;;;;;5090121;28;20364;-82
2023/01/13 05:53:35;;;;;;;4.60;1.20;;;36.00;63.90;;;;;;5095975;28;20465;-83
2023/01/13 05:56:06;;;;;;;3.22;1.20;;;35.20;65.30;;;;;;5092754;28;20383;-83
2023/01/13 05:58:33;;;;;;;4.22;1.30;;;35.00;66.40;;;;;;5089832;28;20408;-83
2023/01/13 06:01:06;;;;;;;2.80;1.20;;;34.50;66.80;;;;;;5100361;28;20515;-83
2023/01/13 06:03:34;;;;;;;2.92;1.20;;;33.70;67.80;;;;;;5103972;28;20396;-81
2023/01/13 06:06:02;;;;;;;4.68;1.50;;;32.90;69.50;;;;;;5100721;28;20890;-84
2023/01/13 06:08:30;;;;;;;3.05;1.30;;;32.30;70.50;;;;;;5095693;28;20468;-84
2023/01/13 06:10:57;;;;;;;3.70;1.30;;;32.10;71.30;;;;;;5098113;28;20380;-84
2023/01/13 06:13:25;;;;;;;3.60;1.17;;;31.20;73.20;;;;;;5091157;28;20384;-83
2023/01/13 06:15:56;;;;;;;4.13;1.33;;;30.90;74.30;;;;;;5095712;28;20384;-85
2023/01/13 06:18:23;;;;;;;4.55;1.40;;;31.10;74.20;;;;;;5097875;28;20404;-87
2023/01/13 06:20:50;;;;;;;2.25;1.10;;;31.20;74.20;;;;;;5082675;28;20377;-82
2023/01/13 06:23:17;;;;;;;3.07;1.30;;;31.20;74.20;;;;;;5089084;28;20442;-84
2023/01/13 06:25:53;;;;;;;3.87;1.23;;;31.20;74.20;;;;;;5092328;28;20447;-85
2023/01/13 06:28:20;;;;;;;2.38;1.10;;;30.90;74.50;;;;;;5078922;28;21293;-84
2023/01/13 06:30:55;;;;;;;3.65;1.17;;;30.80;74.20;;;;;;5091216;28;20375;-84
2023/01/13 06:33:29;;;;;;;4.38;1.38;;;30.80;73.80;;;;;;5091604;28;20384;-83
2023/01/13 06:36:03;;;;;;;3.97;1.50;;;30.50;74.60;;;;;;5090898;28;20375;-85
2023/01/13 06:38:34;;;;;;;3.80;1.27;;;30.30;75.40;;;;;;5091327;28;20421;-84
2023/01/13 06:41:01;;;;;;;4.40;1.20;;;30.10;76.10;;;;;;5091822;28;20433;-83
2023/01/13 06:43:28;;;;;;;3.30;1.10;;;30.00;76.90;;;;;;5093044;28;20373;-84
2023/01/13 06:45:56;;;;;;;3.13;1.20;;;29.90;76.80;;;;;;5092704;28;20452;-84
2023/01/13 06:48:27;;;;;;;5.10;1.30;;;29.70;77.50;;;;;;5093109;28;20368;-84
2023/01/13 06:50:54;;;;;;;4.35;1.30;;;29.50;77.80;;;;;;5092835;28;20867;-85
2023/01/13 06:53:21;;;;;;;4.80;1.50;;;29.30;78.70;;;;;;5079369;28;20869;-85
2023/01/13 06:55:48;;;;;;;4.90;1.40;;;29.10;79.40;;;;;;5093410;28;20381;-84
2023/01/13 06:58:15;;;;;;;3.67;1.13;;;28.80;80.40;;;;;;5093288;28;20745;-85
2023/01/13 07:00:42;;;;;;;4.50;1.40;;;28.60;81.10;;;;;;5093560;28;20373;-85
2023/01/13 07:03:14;;;;;;;4.47;1.20;;;28.30;81.90;;;;;;5092753;28;20376;-85
2023/01/13 07:05:43;;;;;;;4.75;1.60;;;28.00;82.00;;;;;;5092528;28;20372;-84
2023/01/13 07:08:10;;;;;;;4.25;1.50;;;27.70;83.20;;;;;;5092430;28;20381;-84
2023/01/13 07:10:38;;;;;;;3.63;1.38;;;27.60;83.70;;;;;;5092553;28;20364;-83
2023/01/13 07:16:02;;;;;;;5.32;1.50;;;27.50;84.10;;;;;;5092410;28;20410;-84
2023/01/13 07:18:31;;;;;;;6.07;1.40;;;27.40;84.30;;;;;;5091815;28;20756;-84
2023/01/13 07:21:01;;;;;;;4.03;1.17;;;27.40;85.00;;;;;;5092246;28;20724;-84
2023/01/13 07:23:30;;;;;;;4.22;1.25;;;27.40;85.40;;;;;;5080785;28;20364;-84
2023/01/13 07:25:58;;;;;;;3.97;1.40;;;27.60;86.10;;;;;;5092162;28;20421;-83
2023/01/13 07:28:26;;;;;;;5.63;1.30;;;27.40;85.90;;;;;;5092598;28;20425;-84
2023/01/13 07:30:53;;;;;;;5.95;1.35;;;27.30;87.10;;;;;;5092037;28;20767;-85
2023/01/13 07:33:21;;;;;;;4.50;1.20;;;27.20;87.40;;;;;;5092188;28;20740;-84
2023/01/13 07:35:55;;;;;;;5.97;1.60;;;27.10;87.60;;;;;;5091815;28;20363;-83
2023/01/13 07:38:22;;;;;;;5.55;1.30;;;26.90;88.10;;;;;;5091790;28;20466;-83
2023/01/13 07:40:49;;;;;;;4.40;1.43;;;26.90;88.50;;;;;;5091961;28;20369;-84
2023/01/13 07:43:31;;;;;;;5.80;1.60;;;26.90;88.80;;;;;;5091742;28;20377;-83
2023/01/13 07:45:59;;;;;;;4.90;1.50;;;26.80;88.80;;;;;;5091729;28;20864;-84
2023/01/13 07:48:27;;;;;;;5.80;1.40;;;26.70;89.40;;;;;;5091790;28;20403;-83
2023/01/13 07:50:54;;;;;;;7.05;1.48;;;26.80;89.30;;;;;;5091910;28;20460;-84
2023/01/13 07:53:25;;;;;;;5.00;1.40;;;26.70;89.80;;;;;;5078002;28;20404;-84
2023/01/13 07:55:56;;;;;;;3.67;1.45;;;26.60;90.20;;;;;;5078798;28;20389;-83
2023/01/13 07:58:24;;;;;;;4.10;1.50;;;26.50;90.20;;;;;;5091237;28;20478;-83
2023/01/13 08:00:51;;;;;;;4.60;1.40;;;26.60;90.20;;;;;;5091002;28;20698;-83
2023/01/13 08:03:18;;;;;;;4.15;1.40;;;26.50;90.20;;;;;;5091221;28;20404;-83
2023/01/13 08:05:46;;;;;;;3.90;1.30;;;26.40;90.30;;;;;;5091584;28;20396;-83
2023/01/13 08:08:13;;;;;;;5.43;1.50;;;26.30;90.50;;;;;;5091343;28;20513;-84
2023/01/13 08:10:40;;;;;;;5.40;1.30;;;26.20;90.80;;;;;;5091528;28;20417;-84
2023/01/13 08:13:18;;;;;;;5.07;1.52;;;26.20;91.10;;;;;;5091364;28;20423;-83
2023/01/13 08:15:47;;;;;;;6.65;1.50;;;26.00;91.20;;;;;;5090108;28;20379;-83
2023/01/13 08:18:15;;;;;;;4.70;1.50;;;25.80;91.70;;;;;;5091222;28;20455;-83
2023/01/13 08:20:41;;;;;;;6.82;1.63;;;25.70;92.00;;;;;;5091150;28;20392;-84
2023/01/13 08:23:08;;;;;;;7.25;1.67;;;25.60;92.20;;;;;;5092102;28;20387;-80
2023/01/13 08:25:35;;;;;;;5.10;1.40;;;25.60;92.60;;;;;;5090048;28;20392;-76
2023/01/13 08:28:03;;;;;;;6.25;1.67;;;25.60;92.90;;;;;;5096661;28;20382;-86
2023/01/13 08:30:30;;;;;;;9.02;1.70;;;25.50;92.90;;;;;;5098110;28;20476;-82
2023/01/13 08:32:56;;;;;;;4.25;1.42;;;25.60;93.10;;;;;;5102237;28;20367;-81
2023/01/13 08:35:24;;;;;;;5.30;1.45;;;25.60;93.30;;;;;;5097590;28;20992;-77
2023/01/13 08:37:51;;;;;;;6.88;1.80;;;25.50;93.20;;;;;;5100494;28;20403;-82
2023/01/13 08:40:20;;;;;;;7.03;1.67;;;25.40;93.50;;;;;;5091194;28;20384;-81
2023/01/13 08:42:47;;;;;;;6.15;1.50;;;25.40;93.80;;;;;;5090534;28;20388;-78
2023/01/13 08:45:14;;;;;;;6.55;1.52;;;25.30;93.90;;;;;;5101137;28;20376;-77
2023/01/13 08:47:41;;;;;;;5.78;1.80;;;25.30;94.30;;;;;;5092210;28;20437;-76
2023/01/13 08:50:10;;;;;;;6.00;1.60;;;25.10;94.80;;;;;;5095878;28;20368;-76
2023/01/13 08:52:37;;;;;;;6.87;1.70;;;25.10;94.80;;;;;;5083035;28;20440;-77
2023/01/13 08:55:04;;;;;;;7.50;1.73;;;25.10;95.10;;;;;;5086389;28;20369;-76
2023/01/13 08:57:31;;;;;;;5.82;1.60;;;25.00;95.20;;;;;;5090539;28;20395;-77
2023/01/13 08:59:58;;;;;;;6.50;1.83;;;24.90;95.70;;;;;;5090284;28;20404;-81
2023/01/13 09:02:25;;;;;;;6.90;1.65;;;24.90;96.00;;;;;;5090379;28;20395;-77
2023/01/13 09:04:53;;;;;;;6.67;1.60;;;24.80;96.10;;;;;;5090743;28;20835;-79
2023/01/13 09:07:20;;;;;;;9.15;1.83;;;24.80;96.50;;;;;;5090101;28;20376;-77
2023/01/13 09:09:47;;;;;;;6.78;1.70;;;24.70;96.90;;;;;;5089528;28;20393;-78
2023/01/13 09:15:01;;;;;;;7.68;1.80;;;24.70;97.50;;;;;;5090553;28;20400;-78
2023/01/13 09:17:28;;;;;;;8.85;1.80;;;24.70;97.60;;;;;;5090437;28;20393;-75
2023/01/13 09:19:55;;;;;;;6.60;1.60;;;24.80;97.70;;;;;;5089898;28;20459;-78
2023/01/13 09:22:25;;;;;;;8.30;1.88;;;24.80;97.70;;;;;;5089844;28;20426;-83
2023/01/13 09:24:54;;;;;;;6.73;1.50;;;24.70;97.90;;;;;;5093027;28;20386;-83
2023/01/13 09:27:21;;;;;;;8.13;1.80;;;24.60;98.20;;;;;;5092009;28;20376;-77
2023/01/13 09:29:49;;;;;;;7.38;1.80;;;24.70;98.20;;;;;;5083899;28;20422;-82
2023/01/13 09:32:16;;;;;;;7.77;2.20;;;24.60;98.70;;;;;;5089600;28;20377;-77
2023/01/13 09:35:01;;;;;;;7.13;1.95;;;24.50;98.70;;;;;;5089992;28;20380;-79
2023/01/13 09:37:34;;;;;;;6.55;1.88;;;24.40;99.10;;;;;;5091882;28;20410;-78
2023/01/13 09:40:02;;;;;;;8.20;1.70;;;24.40;99.60;;;;;;5098983;28;20399;-81
2023/01/13 09:46:46;;;;;;;8.30;2.00;;;24.30;99.90;;;;;;5020601;28;20476;-78
2023/01/13 09:49:37;;;;;;;8.27;1.90;;;24.30;99.90;;;;;;5013997;28;20383;-78
2023/01/13 09:52:09;;;;;;;8.57;1.90;;;24.30;99.90;;;;;;5023176;28;20390;-80
2023/01/13 09:54:47;;;;;;;6.90;2.05;;;24.20;99.90;;;;;;5023358;28;20387;-80
2023/01/13 09:57:19;;;;;;;6.57;1.85;;;24.20;99.90;;;;;;5026247;28;20437;-80
2023/01/13 09:59:46;;;;;;;7.95;1.90;;;24.20;99.90;;;;;;5007967;28;20405;-78
2023/01/13 10:02:39;;;;;;;9.80;1.95;;;24.20;99.90;;;;;;5029841;28;20873;-83
2023/01/13 10:05:33;;;;;;;8.50;1.95;;;24.20;99.90;;;;;;5022112;28;20407;-77
2023/01/13 10:08:35;;;;;;;6.15;1.88;;;24.20;99.90;;;;;;5016899;28;20379;-77
2023/01/13 10:14:03;;;;;;;7.72;2.00;;;24.30;99.90;;;;;;5029202;28;20400;-79
2023/01/13 10:16:42;;;;;;;8.18;1.85;;;24.20;99.90;;;;;;5066071;28;20752;-76
2023/01/13 10:19:17;;;;;;;8.50;2.07;;;24.10;99.90;;;;;;5093294;28;20499;-81
2023/01/13 10:21:56;;;;;;;7.88;2.40;;;24.10;99.90;;;;;;5094812;28;20388;-80
2023/01/13 10:24:48;;;;;;;8.82;2.22;;;24.10;99.90;;;;;;5076940;28;20381;-80
2023/01/13 10:27:35;;;;;;;9.52;2.00;;;24.10;99.90;;;;;;5092809;28;20389;-82
2023/01/13 10:30:18;;;;;;;6.93;2.00;;;24.00;99.90;;;;;;5088262;28;20471;-82
2023/01/13 10:33:00;;;;;;;9.65;2.00;;;24.00;99.90;;;;;;5093005;28;21174;-77
2023/01/13 10:35:58;;;;;;;8.20;1.80;;;24.00;99.90;;;;;;5092603;28;20473;-78
2023/01/13 10:38:42;;;;;;;6.13;1.80;;;24.00;99.90;;;;;;5087064;28;20497;-79
2023/01/13 10:41:18;;;;;;;6.90;1.83;;;23.90;99.90;;;;;;5088915;28;20395;-79
2023/01/13 10:43:51;;;;;;;7.25;1.83;;;23.80;99.90;;;;;;5094197;28;20372;-79
2023/01/13 10:46:19;;;;;;;5.70;1.70;;;23.80;99.90;;;;;;5091741;28;20388;-79
2023/01/13 10:48:54;;;;;;;6.88;1.95;;;23.80;99.90;;;;;;5092759;28;20936;-80
2023/01/13 10:51:25;;;;;;;6.38;1.60;;;23.80;99.90;;;;;;5091993;28;20867;-83
2023/01/13 10:54:18;;;;;;;7.10;1.88;;;23.70;99.90;;;;;;5084649;28;20874;-78
2023/01/13 10:56:45;;;;;;;9.20;1.80;;;23.70;99.90;;;;;;5092865;28;20886;-79
2023/01/13 10:59:15;;;;;;;5.78;1.90;;;23.80;99.90;;;;;;5078866;28;20746;-79
2023/01/13 11:01:55;;;;;;;6.85;1.70;;;23.80;99.90;;;;;;5092432;28;20775;-78
2023/01/13 11:04:35;;;;;;;8.18;1.90;;;23.80;99.90;;;;;;5091631;28;20433;-79
2023/01/13 11:07:04;;;;;;;6.13;1.55;;;23.70;99.90;;;;;;5087715;28;20372;-82
2023/01/13 11:09:32;;;;;;;6.88;1.85;;;23.70;99.90;;;;;;5091318;28;20416;-81
2023/01/13 11:12:01;;;;;;;4.22;1.55;;;23.60;99.90;;;;;;5091986;28;20379;-78
2023/01/13 11:14:43;;;;;;;7.25;1.70;;;23.60;99.90;;;;;;5092024;28;20499;-80
2023/01/13 11:17:10;;;;;;;6.07;1.80;;;23.60;99.90;;;;;;5089865;28;20824;-78
2023/01/13 11:19:45;;;;;;;6.18;1.73;;;23.50;99.90;;;;;;5091646;28;20388;-85
2023/01/13 11:22:23;;;;;;;6.43;1.70;;;23.40;99.90;;;;;;5092071;28;20372;-81
2023/01/13 11:25:04;;;;;;;7.47;1.90;;;23.40;99.90;;;;;;5089767;28;20748;-78
2023/01/13 11:27:47;;;;;;;8.23;1.85;;;23.40;99.90;;;;;;5089964;28;20868;-79
2023/01/13 11:30:30;;;;;;;5.97;1.63;;;23.30;99.90;;;;;;5095326;28;20426;-80
2023/01/13 11:33:09;;;;;;;6.70;1.60;;;23.20;99.90;;;;;;5092487;28;20407;-83
2023/01/13 11:35:45;;;;;;;6.90;1.85;;;23.30;99.90;;;;;;5091588;28;20465;-78
2023/01/13 11:38:33;;;;;;;7.57;1.90;;;23.10;99.90;;;;;;5091430;28;20445;-81
2023/01/13 11:42:19;;;;;;;6.88;1.95;;;23.00;99.90;;;;;;5094525;28;20412;-78
2023/01/13 11:45:03;;;;;;;7.50;2.00;;;23.00;99.90;;;;;;5020605;28;20420;-78
2023/01/13 11:47:31;;;;;;;6.73;1.50;;;22.90;99.90;;;;;;4950399;28;20495;-79
2023/01/13 11:49:59;;;;;;;7.43;1.70;;;22.90;99.90;;;;;;4950847;28;20424;-77
2023/01/13 11:52:32;;;;;;;10.93;2.13;;;22.90;99.90;;;;;;4950885;28;20476;-78
2023/01/13 11:55:17;;;;;;;11.65;1.88;;;22.90;99.90;;;;;;4944864;28;20514;-80
2023/01/13 11:57:50;;;;;;;7.82;1.80;;;22.90;99.90;;;;;;4941033;29;20416;-79
2023/01/13 12:00:54;;;;;;;10.57;1.85;;;22.90;99.90;;;;;;4950646;29;20388;-77
2023/01/13 12:03:49;;;;;;;6.18;1.60;;;22.90;99.90;;;;;;4911760;29;20435;-84
2023/01/13 12:06:36;;;;;;;6.38;1.80;;;22.90;99.90;;;;;;4912618;29;20883;-78
2023/01/13 12:09:10;;;;;;;8.52;1.70;;;22.80;99.90;;;;;;4902848;29;20391;-83
2023/01/13 12:14:57;;;;;;;7.03;1.80;;;22.70;99.90;;;;;;4912541;29;20395;-78
2023/01/13 12:17:56;;;;;;;8.35;2.05;;;22.70;99.90;;;;;;4913362;29;20438;-78
2023/01/13 12:20:40;;;;;;;8.10;1.85;;;22.60;99.90;;;;;;4912159;29;20406;-78
2023/01/13 12:23:40;;;;;;;8.73;2.00;;;22.60;99.90;;;;;;4909776;29;20400;-79
2023/01/13 12:26:17;;;;;;;7.57;1.80;;;22.50;99.90;;;;;;4988369;28;20987;-78
2023/01/13 12:28:58;;;;;;;7.93;1.95;;;22.50;99.90;;;;;;4989202;28;20400;-78
2023/01/13 12:31:26;;;;;;;10.40;1.83;;;22.40;99.90;;;;;;4985910;28;20404;-78
2023/01/13 12:34:23;;;;;;;6.78;1.70;;;22.30;99.90;;;;;;4989112;28;20789;-81
2023/01/13 12:37:08;;;;;;;7.05;2.00;;;22.20;99.90;;;;;;4989631;28;20490;-79
2023/01/13 12:39:48;;;;;;;9.03;1.90;;;22.20;99.90;;;;;;5043609;28;20449;-81
2023/01/13 12:45:12;;;;;;;7.97;1.73;;;22.10;99.90;;;;;;5068068;28;20483;-80
2023/01/13 12:47:44;;;;;;;7.28;2.08;;;22.10;99.90;;;;;;5054258;28;20453;-79
2023/01/13 12:50:26;;;;;;;8.85;2.00;;;22.00;99.90;;;;;;5061506;28;20378;-79
2023/01/13 12:52:54;;;;;;;6.20;1.90;;;21.90;99.90;;;;;;5058913;28;20383;-79
2023/01/13 12:55:22;;;;;;;99.93;6.43;;;21.90;99.90;;;;;;5059361;28;20394;-79
2023/01/13 12:58:07;;;;;;;20.88;2.60;;;21.80;99.90;;;;;;5081843;28;20992;-80
2023/01/13 13:00:54;;;;;;;11.68;2.10;;;21.80;99.90;;;;;;5083435;28;20475;-80
2023/01/13 13:03:30;;;;;;;8.57;1.95;;;21.70;99.90;;;;;;5086028;28;20372;-79
2023/01/13 13:06:12;;;;;;;7.97;1.85;;;21.70;99.90;;;;;;5090117;28;20421;-79
2023/01/13 13:09:17;;;;;;;8.90;2.03;;;21.70;99.90;;;;;;5090336;28;20388;-78
2023/01/13 13:14:40;;;;;;;9.95;2.05;;;21.60;99.90;;;;;;5089760;28;20377;-80
2023/01/13 13:17:20;;;;;;;8.82;2.00;;;21.50;99.90;;;;;;5081000;28;20368;-77
2023/01/13 13:19:48;;;;;;;10.32;2.05;;;21.40;99.90;;;;;;5090252;28;20392;-77
2023/01/13 13:22:17;;;;;;;8.15;1.90;;;21.40;99.90;;;;;;5090159;28;20376;-79
2023/01/13 13:24:51;;;;;;;8.57;2.00;;;21.40;99.90;;;;;;5089773;28;20377;-81
2023/01/13 13:27:39;;;;;;;9.00;1.88;;;21.40;99.90;;;;;;5089999;28;20939;-78
2023/01/13 13:30:29;;;;;;;8.77;2.00;;;21.40;99.90;;;;;;5089878;28;20883;-81
2023/01/13 13:33:02;;;;;;;7.28;2.08;;;21.40;99.90;;;;;;5089807;28;20371;-81
2023/01/13 13:35:53;;;;;;;7.60;1.95;;;21.30;99.90;;;;;;5089588;28;20377;-78
2023/01/13 13:47:16;;;;;;;7.67;1.93;;;21.10;99.90;;;;;;5089905;28;20379;-81
2023/01/13 13:49:49;;;;;;;7.90;2.07;;;21.10;99.90;;;;;;5089616;28;20518;-81
2023/01/13 13:52:19;;;;;;;9.75;2.08;;;21.10;99.90;;;;;;5085641;28;20370;-82
2023/01/13 13:54:50;;;;;;;8.32;1.85;;;21.10;99.90;;;;;;5081324;28;20379;-81
2023/01/13 13:57:29;;;;;;;7.68;1.80;;;21.00;99.90;;;;;;5089137;28;20381;-79
2023/01/13 13:59:59;;;;;;;9.50;2.20;;;21.00;99.90;;;;;;5089449;28;20384;-81
2023/01/13 14:02:31;;;;;;;9.48;1.98;;;21.00;99.90;;;;;;5089544;28;20522;-81
2023/01/13 14:05:20;;;;;;;11.27;2.10;;;21.00;99.90;;;;;;5089583;28;20380;-77
2023/01/13 14:07:50;;;;;;;9.33;2.20;;;20.90;99.90;;;;;;5089761;28;20865;-79
2023/01/13 14:10:51;;;;;;;11.15;2.10;;;20.90;99.90;;;;;;5089585;28;20373;-81
2023/01/13 14:13:36;;;;;;;7.38;2.00;;;20.90;99.90;;;;;;5087379;28;20482;-78
2023/01/13 14:16:10;;;;;;;8.48;2.10;;;20.90;99.90;;;;;;5089542;28;20376;-83